Time;durP1;ratioP1;P1;durP2;ratioP2;P2;SDS_P1;SDS_P2;PMS_P1;PMS_P2;Temp;Humidity;BMP_temperature;BMP_pressure;BME280_temperature;BME280_humidity;BME280_pressure;Samples;Min_cycle;Max_cycle;Signal;HPM_P1;HPM_P2
2022/09/14 00:00:26;;;;;;;9.05;4.20;;;;;;;18.25;86.44;98659.34;5115177;28;20441;-89
2022/09/14 00:02:53;;;;;;;8.27;4.03;;;;;;;18.25;85.85;98661.19;5115890;27;20122;-91
2022/09/14 00:05:21;;;;;;;5.97;3.80;;;;;;;18.25;85.80;98667.41;5113109;28;20040;-92
2022/09/14 00:07:46;;;;;;;7.07;4.25;;;;;;;18.38;85.86;98688.22;5114371;28;20040;-90
2022/09/14 00:10:12;;;;;;;6.90;3.80;;;;;;;18.23;86.36;98666.66;5114428;28;20416;-90
2022/09/14 00:12:38;;;;;;;6.25;4.18;;;;;;;18.13;86.51;98654.72;5114502;28;20588;-92
2022/09/14 00:15:06;;;;;;;8.13;4.28;;;;;;;18.17;86.44;98666.16;5114639;28;20039;-93
2022/09/14 00:17:32;;;;;;;6.68;4.25;;;;;;;18.13;87.22;98668.19;5115564;28;20073;-90
2022/09/14 00:19:57;;;;;;;9.02;4.55;;;;;;;18.23;87.18;98688.19;5115989;28;20044;-91
2022/09/14 00:22:25;;;;;;;7.68;4.22;;;;;;;18.19;87.62;98675.84;5115259;28;20047;-90
2022/09/14 00:24:50;;;;;;;6.25;4.13;;;;;;;18.18;87.46;98676.84;5115383;28;20060;-92
2022/09/14 00:27:16;;;;;;;8.65;4.30;;;;;;;18.02;87.99;98649.09;5115465;28;20048;-90
2022/09/14 00:29:42;;;;;;;5.93;4.30;;;;;;;17.98;87.40;98640.34;5115155;28;20035;-92
2022/09/14 00:32:08;;;;;;;8.43;4.30;;;;;;;18.10;87.60;98654.88;5115972;28;20092;-89
2022/09/14 00:34:34;;;;;;;7.70;4.38;;;;;;;18.17;87.70;98669.72;5115301;27;20035;-92
2022/09/14 00:37:00;;;;;;;9.43;4.50;;;;;;;18.15;87.91;98657.31;5114119;28;20047;-90
2022/09/14 00:39:27;;;;;;;10.20;4.20;;;;;;;18.16;87.72;98657.22;5115481;27;20731;-89
2022/09/14 00:41:53;;;;;;;7.00;4.13;;;;;;;18.02;87.79;98635.63;5114528;28;20031;-90
2022/09/14 00:44:57;;;;;;;7.38;4.38;;;;;;;18.21;87.65;98673.94;5115025;28;20039;-91
2022/09/14 00:47:23;;;;;;;6.18;4.32;;;;;;;18.12;87.69;98663.75;5112868;28;20500;-90
2022/09/14 00:49:48;;;;;;;6.63;4.43;;;;;;;17.97;88.27;98645.81;5114007;28;20047;-90
2022/09/14 00:52:17;;;;;;;8.27;4.40;;;;;;;18.02;88.47;98662.53;5115850;27;20040;-91
2022/09/14 00:54:46;;;;;;;;;;;;;;;18.01;88.57;98664.38;5114803;28;20043;-90
2022/09/14 00:57:13;;;;;;;6.05;4.40;;;;;;;17.95;89.03;98663.88;5115738;27;19928;-90
2022/09/14 00:59:40;;;;;;;9.48;4.43;;;;;;;17.96;89.13;98666.47;5112579;28;20031;-90
2022/09/14 01:02:08;;;;;;;5.70;4.25;;;;;;;17.96;89.51;98671.00;5112705;28;20039;-91
2022/09/14 01:04:35;;;;;;;7.38;4.45;;;;;;;17.86;89.71;98673.34;5115355;28;20044;-89
2022/09/14 01:07:09;;;;;;;7.03;4.20;;;;;;;17.84;89.84;98678.81;5115085;28;20039;-91
2022/09/14 01:09:43;;;;;;;7.28;4.30;;;;;;;17.79;90.06;98661.19;5116850;27;20038;-90
2022/09/14 01:12:19;;;;;;;7.30;4.25;;;;;;;17.76;90.56;98667.63;5114912;28;20041;-91
2022/09/14 01:14:56;;;;;;;7.72;4.18;;;;;;;17.70;90.47;98664.41;5113583;28;20050;-90
2022/09/14 01:17:29;;;;;;;7.63;4.30;;;;;;;17.64;91.61;98661.13;5112026;28;20043;-89
2022/09/14 01:20:14;;;;;;;7.03;4.20;;;;;;;17.69;91.42;98674.28;5113842;28;20039;-91
2022/09/14 01:22:45;;;;;;;8.75;4.45;;;;;;;17.56;92.44;98660.69;5113571;28;20039;-91
2022/09/14 01:25:27;;;;;;;7.75;4.53;;;;;;;17.65;92.54;98679.00;5115055;28;20519;-90
2022/09/14 01:27:59;;;;;;;7.53;4.35;;;;;;;17.64;92.76;98660.25;5114062;28;20032;-90
2022/09/14 01:30:27;;;;;;;8.85;4.20;;;;;;;17.64;92.82;98657.56;5115398;28;20155;-91
2022/09/14 01:32:59;;;;;;;8.40;4.30;;;;;;;17.69;92.63;98659.97;5114600;28;20805;-89
2022/09/14 01:35:30;;;;;;;8.07;4.28;;;;;;;17.60;92.70;98643.41;5112996;28;20028;-90
2022/09/14 01:38:01;;;;;;;5.30;4.07;;;;;;;17.70;92.93;98643.78;5116572;28;20442;-90
2022/09/14 01:40:31;;;;;;;7.75;4.50;;;;;;;17.62;92.96;98624.53;5116050;28;20692;-92
2022/09/14 01:43:03;;;;;;;5.70;4.40;;;;;;;17.57;93.09;98611.34;5115174;28;20710;-94
2022/09/14 01:45:30;;;;;;;8.25;4.30;;;;;;;17.59;93.15;98608.56;5115351;28;20542;-93
2022/09/14 01:48:01;;;;;;;5.80;4.20;;;;;;;17.56;93.46;98601.53;5115346;28;20781;-92
2022/09/14 01:50:32;;;;;;;8.77;4.47;;;;;;;17.76;92.42;98624.59;5114558;28;20503;-89
2022/09/14 01:53:04;;;;;;;9.60;4.75;;;;;;;17.67;92.79;98617.03;5113996;28;20035;-92
2022/09/14 01:55:35;;;;;;;7.63;4.53;;;;;;;17.70;92.42;98627.63;5114977;28;20512;-92
2022/09/14 01:58:08;;;;;;;7.32;4.70;;;;;;;17.73;91.65;98627.44;5113669;28;20050;-90
2022/09/14 02:00:38;;;;;;;7.75;4.65;;;;;;;17.61;93.24;98633.56;5113686;28;20123;-92
2022/09/14 02:03:10;;;;;;;8.23;4.82;;;;;;;17.46;93.92;98629.94;5114580;28;20040;-89
2022/09/14 02:05:42;;;;;;;9.20;4.95;;;;;;;17.35;94.96;98617.09;5113962;28;20114;-91
2022/09/14 02:08:08;;;;;;;6.10;4.65;;;;;;;17.37;93.85;98617.88;5114533;28;20042;-90
2022/09/14 02:10:34;;;;;;;10.73;5.05;;;;;;;17.43;94.66;98633.63;5113932;28;20126;-89
2022/09/14 02:13:00;;;;;;;9.40;5.25;;;;;;;17.44;94.98;98637.22;5115164;28;20036;-91
2022/09/14 02:15:27;;;;;;;10.43;4.55;;;;;;;17.36;94.15;98621.50;5113949;28;20409;-90
2022/09/14 02:17:53;;;;;;;9.70;4.82;;;;;;;17.31;95.13;98626.28;5113931;28;20035;-92
2022/09/14 02:20:24;;;;;;;11.10;5.13;;;;;;;17.41;95.04;98637.38;5114208;28;20114;-90
2022/09/14 02:22:50;;;;;;;11.10;5.25;;;;;;;17.36;96.15;98644.84;5114674;28;20066;-90
2022/09/14 02:25:18;;;;;;;8.10;4.90;;;;;;;17.16;96.97;98617.28;5113734;28;20042;-90
2022/09/14 02:27:43;;;;;;;6.28;4.38;;;;;;;17.28;95.86;98625.59;5111484;28;20501;-92
2022/09/14 02:30:10;;;;;;;7.93;5.20;;;;;;;17.24;95.19;98617.72;5115947;28;20050;-91
2022/09/14 02:32:48;;;;;;;9.23;5.38;;;;;;;17.20;96.74;98620.66;5115898;28;20489;-93
2022/09/14 02:35:18;;;;;;;7.05;4.90;;;;;;;17.09;96.40;98604.25;5116394;28;20044;-91
2022/09/14 02:37:54;;;;;;;6.40;5.00;;;;;;;17.30;96.36;98627.22;5116988;28;20039;-91
2022/09/14 02:40:27;;;;;;;6.47;4.38;;;;;;;17.30;96.49;98621.84;5116979;28;20054;-89
2022/09/14 02:43:02;;;;;;;7.68;4.43;;;;;;;17.15;97.11;98603.91;5116391;28;20066;-93
2022/09/14 02:45:34;;;;;;;9.15;5.15;;;;;;;17.08;98.06;98587.28;5116208;27;20051;-90
2022/09/14 02:48:09;;;;;;;10.73;4.97;;;;;;;17.13;98.61;98589.69;5116898;28;20089;-90
2022/09/14 02:50:40;;;;;;;7.00;4.75;;;;;;;17.23;97.65;98598.97;5116066;28;20063;-89
2022/09/14 02:53:12;;;;;;;8.50;5.13;;;;;;;17.19;97.48;98597.41;5115990;28;20373;-91
2022/09/14 02:55:43;;;;;;;9.02;4.75;;;;;;;17.14;97.74;98594.13;5116964;28;20396;-92
2022/09/14 02:58:12;;;;;;;9.70;7.00;;;;;;;17.02;98.15;98583.13;5117019;28;20031;-90
2022/09/14 03:00:40;;;;;;;8.93;5.10;;;;;;;17.03;97.75;98587.53;5115800;27;20044;-90
2022/09/14 03:03:09;;;;;;;8.73;5.03;;;;;;;17.10;99.20;98603.31;5113640;28;20134;-91
2022/09/14 03:05:36;;;;;;;9.52;5.00;;;;;;;17.01;98.93;98597.50;5116581;28;20059;-90
2022/09/14 03:08:03;;;;;;;8.52;5.10;;;;;;;16.88;98.56;98579.47;5116628;28;20485;-90
2022/09/14 03:10:30;;;;;;;10.65;5.25;;;;;;;16.83;99.67;98571.69;5117145;27;20035;-89
2022/09/14 03:12:56;;;;;;;9.00;5.38;;;;;;;17.01;99.53;98599.31;5116397;28;20034;-89
2022/09/14 03:15:21;;;;;;;6.60;5.03;;;;;;;16.86;98.93;98576.88;5116364;27;20047;-89
2022/09/14 03:17:48;;;;;;;8.10;5.35;;;;;;;16.87;98.95;98583.09;5116151;28;20043;-89
2022/09/14 03:20:18;;;;;;;10.32;5.25;;;;;;;16.87;99.03;98580.41;5115770;28;20149;-92
2022/09/14 03:22:44;;;;;;;9.50;5.18;;;;;;;16.95;98.86;98588.91;5118688;27;20039;-90
2022/09/14 03:25:10;;;;;;;9.40;5.18;;;;;;;16.83;98.38;98571.69;5115996;28;20088;-92
2022/09/14 03:27:36;;;;;;;7.70;4.72;;;;;;;16.81;98.59;98573.59;5113789;28;20446;-90
2022/09/14 03:30:02;;;;;;;8.07;4.93;;;;;;;16.74;99.29;98573.03;5118210;27;20035;-92
2022/09/14 03:32:28;;;;;;;7.38;5.00;;;;;;;16.71;98.34;98569.63;5114093;27;20039;-91
2022/09/14 03:34:53;;;;;;;9.55;5.88;;;;;;;16.77;99.69;98583.59;5115468;28;20133;-90
2022/09/14 03:37:21;;;;;;;10.63;5.82;;;;;;;16.76;99.70;98579.19;5117949;27;20143;-90
2022/09/14 03:39:46;;;;;;;11.32;5.68;;;;;;;16.79;100.00;98586.19;5115037;28;20031;-88
2022/09/14 03:42:12;;;;;;;11.50;5.47;;;;;;;16.78;100.00;98589.81;5115589;28;20040;-90
2022/09/14 03:44:38;;;;;;;10.45;5.53;;;;;;;16.69;100.00;98575.09;5115843;28;20032;-89
2022/09/14 03:47:04;;;;;;;8.00;5.40;;;;;;;16.78;100.00;98587.13;5116017;27;20084;-90
2022/09/14 03:49:30;;;;;;;8.95;5.78;;;;;;;16.66;100.00;98569.03;5115998;28;20049;-91
2022/09/14 03:51:55;;;;;;;8.75;5.93;;;;;;;16.78;100.00;98596.03;5114911;28;20419;-91
2022/09/14 03:54:23;;;;;;;11.00;6.00;;;;;;;16.58;100.00;98556.03;5113282;27;20047;-91
2022/09/14 03:56:51;;;;;;;9.38;5.63;;;;;;;16.71;100.00;98583.06;5116060;28;20517;-90
2022/09/14 03:59:16;;;;;;;11.75;6.07;;;;;;;16.68;100.00;98568.00;5115190;28;20067;-91
2022/09/14 04:01:42;;;;;;;9.40;5.78;;;;;;;16.70;100.00;98565.19;5112041;28;20059;-91
2022/09/14 04:04:08;;;;;;;10.93;6.18;;;;;;;16.71;100.00;98570.50;5117101;27;20453;-91
2022/09/14 04:06:34;;;;;;;9.75;6.10;;;;;;;16.71;100.00;98578.56;5113801;27;21270;-91
2022/09/14 04:08:59;;;;;;;11.73;6.03;;;;;;;16.63;100.00;98564.69;5115636;27;20126;-91
2022/09/14 04:11:28;;;;;;;12.25;6.20;;;;;;;16.69;100.00;98583.13;5114239;27;20063;-91
2022/09/14 04:13:53;;;;;;;9.90;6.63;;;;;;;16.53;100.00;98560.78;5113833;28;20042;-90
2022/09/14 04:16:20;;;;;;;10.23;6.15;;;;;;;16.64;100.00;98583.41;5115473;27;20489;-89
2022/09/14 04:18:46;;;;;;;13.02;6.53;;;;;;;16.69;100.00;98587.66;5114390;28;20122;-93
2022/09/14 04:21:14;;;;;;;12.73;6.50;;;;;;;16.64;100.00;98578.03;5114927;28;20052;-91
2022/09/14 04:23:40;;;;;;;10.20;6.20;;;;;;;16.60;100.00;98568.41;5114683;28;20108;-89
2022/09/14 04:26:11;;;;;;;13.32;6.60;;;;;;;16.62;100.00;98573.69;5115118;28;20048;-92
2022/09/14 04:28:39;;;;;;;10.25;6.05;;;;;;;16.52;100.00;98567.09;5112628;27;20036;-90
2022/09/14 04:31:05;;;;;;;14.25;6.85;;;;;;;16.63;100.00;98581.69;5113806;28;20054;-92
2022/09/14 04:33:33;;;;;;;11.75;5.97;;;;;;;16.55;100.00;98572.31;5116508;27;20388;-90
2022/09/14 04:36:00;;;;;;;12.70;7.00;;;;;;;16.74;100.00;98593.63;5115813;27;20397;-91
2022/09/14 04:38:27;;;;;;;9.30;6.40;;;;;;;16.78;100.00;98596.03;5114834;28;20044;-90
2022/09/14 04:40:53;;;;;;;11.73;6.28;;;;;;;16.79;100.00;98591.56;5114841;28;20093;-90
2022/09/14 04:43:18;;;;;;;9.75;6.65;;;;;;;16.95;100.00;98599.66;5114506;28;20039;-92
2022/09/14 04:45:46;;;;;;;9.32;6.45;;;;;;;16.89;99.31;98598.16;5113311;28;20134;-91
2022/09/14 04:48:12;;;;;;;13.77;6.72;;;;;;;16.78;99.34;98573.72;5112911;28;20389;-89
2022/09/14 04:50:37;;;;;;;12.68;7.30;;;;;;;16.94;98.80;98601.50;5114967;28;20040;-90
2022/09/14 04:53:03;;;;;;;9.73;6.10;;;;;;;16.97;98.92;98609.38;5113437;28;20074;-93
2022/09/14 04:55:29;;;;;;;16.17;6.50;;;;;;;16.87;98.51;98585.78;5114136;28;20489;-91
2022/09/14 04:57:55;;;;;;;10.73;5.82;;;;;;;16.98;97.64;98586.06;5114387;28;20066;-93
2022/09/14 05:00:21;;;;;;;9.32;5.32;;;;;;;17.15;97.15;98610.13;5113317;28;20063;-91
2022/09/14 05:02:48;;;;;;;10.43;6.10;;;;;;;17.20;96.75;98612.59;5114173;28;20127;-90
2022/09/14 05:05:14;;;;;;;12.25;5.78;;;;;;;17.11;95.75;98592.50;5116087;28;20047;-92
2022/09/14 05:07:40;;;;;;;10.02;5.78;;;;;;;17.09;95.37;98588.13;5115294;27;20035;-93
2022/09/14 05:10:07;;;;;;;9.90;5.72;;;;;;;17.21;94.92;98592.81;5115329;28;20158;-90
2022/09/14 05:12:33;;;;;;;9.38;5.75;;;;;;;17.30;94.76;98603.03;5113817;28;20032;-91
2022/09/14 05:14:59;;;;;;;10.68;5.90;;;;;;;17.32;94.50;98594.91;5113003;28;20038;-91
2022/09/14 05:17:25;;;;;;;14.20;5.97;;;;;;;17.43;94.29;98606.75;5112759;28;20040;-92
2022/09/14 05:19:52;;;;;;;10.73;5.47;;;;;;;17.44;93.71;98597.75;5114909;28;20031;-93
2022/09/14 05:22:20;;;;;;;11.05;5.45;;;;;;;17.47;93.99;98596.69;5113858;28;20456;-92
2022/09/14 05:24:46;;;;;;;9.77;5.93;;;;;;;17.44;94.20;98587.00;5118288;28;20050;-91
2022/09/14 05:27:11;;;;;;;12.60;5.75;;;;;;;17.58;94.04;98593.38;5115638;28;20052;-91
2022/09/14 05:29:39;;;;;;;11.55;6.20;;;;;;;17.66;94.37;98600.03;5113051;28;20051;-92
2022/09/14 05:32:05;;;;;;;12.98;5.80;;;;;;;17.68;93.88;98591.91;5113999;28;20043;-90
2022/09/14 05:34:31;;;;;;;15.95;5.60;;;;;;;17.62;93.30;98576.97;5116353;28;20497;-91
2022/09/14 05:36:58;;;;;;;11.32;6.00;;;;;;;17.65;93.72;98578.59;5116207;28;20894;-89
2022/09/14 05:39:24;;;;;;;10.45;5.45;;;;;;;17.80;93.21;98603.72;5115390;28;20097;-92
2022/09/14 05:41:50;;;;;;;11.75;5.43;;;;;;;17.85;93.22;98599.88;5116894;28;20032;-90
2022/09/14 05:44:16;;;;;;;9.13;5.75;;;;;;;17.84;92.85;98579.28;5118013;28;20059;-94
2022/09/14 05:46:42;;;;;;;9.80;5.90;;;;;;;17.98;92.81;98596.44;5115848;28;20043;-92
2022/09/14 05:49:08;;;;;;;10.52;6.05;;;;;;;18.04;92.70;98607.72;5117670;28;20043;-90
2022/09/14 05:51:34;;;;;;;10.23;5.50;;;;;;;18.08;92.82;98605.69;5116325;28;20044;-90
2022/09/14 05:54:02;;;;;;;18.17;7.75;;;;;;;18.20;93.06;98615.72;5116470;28;20104;-89
2022/09/14 05:56:30;;;;;;;15.60;6.90;;;;;;;18.11;92.29;98577.72;5117814;28;20533;-92
2022/09/14 05:58:58;;;;;;;12.85;6.80;;;;;;;18.33;91.25;98593.44;5115345;28;20333;-92
2022/09/14 06:01:25;;;;;;;11.00;6.22;;;;;;;18.32;90.18;98576.41;5115278;28;20175;-91
2022/09/14 06:03:53;;;;;;;12.50;7.05;;;;;;;18.47;89.93;98588.91;5115941;28;21315;-90
2022/09/14 06:06:19;;;;;;;14.60;7.10;;;;;;;18.54;88.77;98584.03;5116741;28;20051;-90
2022/09/14 06:08:48;;;;;;;13.95;7.15;;;;;;;18.50;88.02;98569.03;5118327;28;20079;-92
2022/09/14 06:11:18;;;;;;;13.15;6.68;;;;;;;18.69;87.77;98590.25;5117210;27;20040;-91
2022/09/14 06:13:45;;;;;;;10.75;6.82;;;;;;;18.72;86.82;98581.13;5116624;28;20138;-91
2022/09/14 06:16:13;;;;;;;12.88;7.10;;;;;;;18.92;85.97;98590.66;5119606;28;20040;-89
2022/09/14 06:18:40;;;;;;;12.93;6.90;;;;;;;19.05;86.04;98587.06;5117841;28;20040;-90
2022/09/14 06:21:09;;;;;;;12.18;6.90;;;;;;;19.21;84.98;98589.63;5119699;28;20501;-91
2022/09/14 06:23:36;;;;;;;11.18;6.80;;;;;;;19.54;83.34;98603.69;5120162;28;20039;-92
2022/09/14 06:26:03;;;;;;;11.38;6.95;;;;;;;19.66;82.02;98579.47;5119241;28;20054;-90
2022/09/14 06:28:31;;;;;;;15.10;7.28;;;;;;;19.87;81.00;98577.19;5119354;28;20053;-90
2022/09/14 06:30:58;;;;;;;12.07;6.00;;;;;;;19.95;79.64;98571.28;5123770;28;20059;-90
2022/09/14 06:33:24;;;;;;;12.95;5.82;;;;;;;20.11;79.78;98558.44;5118645;28;20126;-90
2022/09/14 06:35:54;;;;;;;10.50;5.97;;;;;;;20.26;77.65;98559.19;5118407;28;20036;-90
2022/09/14 06:38:20;;;;;;;11.07;6.13;;;;;;;20.55;76.64;98569.78;5115553;28;20126;-91
2022/09/14 06:40:51;;;;;;;9.75;5.85;;;;;;;20.64;75.42;98554.78;5119406;28;20067;-91
2022/09/14 06:43:16;;;;;;;11.02;6.93;;;;;;;20.81;74.91;98551.72;5116950;28;20038;-91
2022/09/14 06:45:53;;;;;;;9.50;6.65;;;;;;;21.04;73.91;98571.66;5118188;28;20043;-94
2022/09/14 06:48:19;;;;;;;11.05;6.03;;;;;;;21.09;74.06;98568.63;5117150;28;20051;-90
2022/09/14 06:50:44;;;;;;;10.90;5.70;;;;;;;21.04;74.42;98544.63;5117401;28;20511;-90
2022/09/14 06:53:10;;;;;;;13.02;5.88;;;;;;;21.33;72.57;98568.66;5119208;28;20039;-90
2022/09/14 06:55:36;;;;;;;12.85;6.22;;;;;;;21.31;72.94;98560.63;5116602;28;20082;-90
2022/09/14 06:58:02;;;;;;;11.40;5.90;;;;;;;21.53;70.78;98557.25;5117811;28;20036;-93
2022/09/14 07:00:28;;;;;;;10.50;6.50;;;;;;;21.62;70.67;98573.75;5116404;28;20031;-90
2022/09/14 07:02:55;;;;;;;10.98;5.25;;;;;;;21.66;68.75;98567.13;5119290;28;20042;-92
2022/09/14 07:05:21;;;;;;;13.57;6.03;;;;;;;21.60;68.29;98559.47;5118439;28;20492;-91
2022/09/14 07:07:51;;;;;;;13.63;6.10;;;;;;;21.56;69.25;98560.66;5120618;28;20036;-91
2022/09/14 07:10:17;;;;;;;9.85;6.05;;;;;;;21.73;68.15;98571.13;5121910;27;20043;-92
2022/09/14 07:12:43;;;;;;;8.73;5.28;;;;;;;21.52;68.52;98560.06;5119454;28;20035;-91
2022/09/14 07:15:09;;;;;;;12.27;5.82;;;;;;;21.66;69.05;98572.53;5116827;28;20043;-93
2022/09/14 07:17:35;;;;;;;9.30;5.50;;;;;;;21.76;67.06;98570.88;5121584;28;20624;-91
2022/09/14 07:20:03;;;;;;;13.32;6.25;;;;;;;21.86;66.28;98584.53;5122941;28;20043;-92
2022/09/14 07:22:32;;;;;;;20.27;6.47;;;;;;;21.79;66.41;98573.31;5102315;28;20060;-90
2022/09/14 07:24:58;;;;;;;18.33;6.88;;;;;;;21.69;65.90;98572.31;5103075;28;20020;-91
2022/09/14 07:27:23;;;;;;;17.50;7.78;;;;;;;21.59;66.56;98601.91;5103777;28;20206;-90
2022/09/14 07:29:49;;;;;;;21.48;8.55;;;;;;;21.66;65.68;98578.81;5107130;28;20430;-90
2022/09/14 07:32:15;;;;;;;12.93;7.40;;;;;;;21.75;66.73;98593.47;5104848;28;20402;-92
2022/09/14 07:34:41;;;;;;;14.90;8.02;;;;;;;21.64;66.26;98582.59;5104726;28;20378;-94
2022/09/14 07:37:09;;;;;;;25.58;9.05;;;;;;;21.54;67.02;98594.13;5101096;28;20189;-91
2022/09/14 07:39:35;;;;;;;14.73;7.80;;;;;;;21.43;67.73;98574.28;5103852;28;20040;-91
2022/09/14 07:42:01;;;;;;;18.23;7.97;;;;;;;21.39;68.37;98570.91;5104124;28;20296;-93
2022/09/14 07:44:27;;;;;;;21.23;8.40;;;;;;;21.42;68.06;98564.44;5103366;28;20062;-91
2022/09/14 07:46:53;;;;;;;19.75;7.80;;;;;;;21.42;68.95;98572.53;5102297;28;20048;-92
2022/09/14 07:49:20;;;;;;;16.67;6.97;;;;;;;21.64;68.60;98578.09;5106387;28;20042;-93
2022/09/14 07:51:47;;;;;;;13.25;7.00;;;;;;;21.94;66.57;98587.53;5104680;28;20036;-91
2022/09/14 07:54:16;;;;;;;13.10;6.85;;;;;;;22.02;64.89;98586.97;5104190;28;20070;-90
2022/09/14 07:56:42;;;;;;;13.07;5.75;;;;;;;22.30;62.16;98591.97;5106128;28;20036;-91
2022/09/14 07:59:10;;;;;;;20.33;6.20;;;;;;;22.61;61.50;98597.69;5105696;28;20073;-91
2022/09/14 08:01:36;;;;;;;20.52;6.28;;;;;;;22.47;61.65;98606.06;5102732;28;20043;-91
2022/09/14 08:04:02;;;;;;;15.65;5.90;;;;;;;22.73;61.08;98590.44;5105770;28;20087;-91
2022/09/14 08:06:29;;;;;;;13.10;5.93;;;;;;;23.32;59.87;98590.16;5101501;28;20048;-91
2022/09/14 08:08:56;;;;;;;12.13;5.47;;;;;;;23.45;56.28;98608.16;5103806;28;20394;-92
2022/09/14 08:11:25;;;;;;;17.83;5.90;;;;;;;23.88;55.52;98600.03;5105968;27;20552;-91
2022/09/14 08:13:52;;;;;;;11.98;5.13;;;;;;;24.04;55.45;98598.72;5104856;28;20131;-93
2022/09/14 08:16:19;;;;;;;14.30;5.40;;;;;;;23.86;54.75;98602.00;5105922;28;20120;-92
2022/09/14 08:18:46;;;;;;;12.27;5.68;;;;;;;23.87;55.05;98622.72;5108244;28;20047;-93
2022/09/14 08:21:14;;;;;;;16.63;5.18;;;;;;;23.57;55.04;98613.44;5113836;28;20171;-91
2022/09/14 08:23:41;;;;;;;13.93;5.68;;;;;;;23.17;56.65;98615.84;5122766;28;20074;-93
2022/09/14 08:26:09;;;;;;;13.65;6.82;;;;;;;23.41;57.40;98656.41;5121087;28;20040;-93
2022/09/14 08:28:37;;;;;;;11.25;4.53;;;;;;;23.50;54.08;98654.78;5120829;28;20052;-92
2022/09/14 08:31:05;;;;;;;11.77;4.60;;;;;;;23.41;55.28;98629.25;5121901;28;20060;-91
2022/09/14 08:33:32;;;;;;;9.45;4.85;;;;;;;23.51;53.73;98645.66;5122201;28;20040;-91
2022/09/14 08:35:58;;;;;;;15.70;4.78;;;;;;;23.33;54.29;98637.16;5124073;27;20089;-90
2022/09/14 08:38:24;;;;;;;12.98;5.22;;;;;;;23.24;54.96;98638.75;5123198;28;20043;-93
2022/09/14 08:40:50;;;;;;;15.52;5.20;;;;;;;23.24;55.05;98656.91;5121211;28;20050;-92
2022/09/14 08:43:17;;;;;;;14.98;5.55;;;;;;;23.17;55.29;98686.38;5120285;28;20035;-93
2022/09/14 08:45:47;;;;;;;15.65;5.20;;;;;;;23.19;56.10;98672.69;5119691;28;20070;-91
2022/09/14 08:48:21;;;;;;;10.55;5.15;;;;;;;23.67;53.81;98672.38;5120924;28;20406;-91
2022/09/14 08:50:52;;;;;;;12.27;5.43;;;;;;;24.02;51.58;98696.63;5120792;28;20038;-90
2022/09/14 08:53:20;;;;;;;12.02;5.45;;;;;;;24.08;52.44;98676.25;5121731;28;20032;-93
2022/09/14 08:55:51;;;;;;;16.10;5.80;;;;;;;24.47;51.06;98692.88;5121059;28;20047;-90
2022/09/14 08:58:28;;;;;;;12.57;5.07;;;;;;;24.56;48.85;98665.78;5115460;28;20061;-91
2022/09/14 09:01:06;;;;;;;11.68;5.15;;;;;;;24.42;48.70;98657.06;5120567;28;20036;-90
2022/09/14 09:03:59;;;;;;;12.57;4.78;;;;;;;24.62;48.87;98667.13;5116596;28;20050;-91
2022/09/14 09:06:32;;;;;;;11.55;4.53;;;;;;;24.56;48.24;98660.34;5117762;28;20043;-91
2022/09/14 09:09:07;;;;;;;13.40;5.05;;;;;;;24.38;48.90;98651.91;5121154;28;20483;-92
2022/09/14 09:11:36;;;;;;;14.73;5.53;;;;;;;24.44;51.10;98649.63;5117765;28;20123;-93
2022/09/14 09:14:09;;;;;;;15.10;5.30;;;;;;;24.68;49.16;98665.72;5118063;28;20055;-91
2022/09/14 09:16:37;;;;;;;9.63;4.88;;;;;;;24.89;49.17;98684.75;5116506;28;20493;-91
2022/09/14 09:19:10;;;;;;;17.37;5.50;;;;;;;25.12;48.34;98690.88;5116484;28;20028;-91
2022/09/14 09:21:42;;;;;;;14.85;5.53;;;;;;;24.89;48.08;98688.31;5118767;28;20387;-92
2022/09/14 09:24:16;;;;;;;12.25;5.53;;;;;;;25.40;48.45;98681.16;5116638;28;20392;-91
2022/09/14 09:26:42;;;;;;;13.10;6.00;;;;;;;25.78;47.08;98682.25;5117169;28;20032;-91
2022/09/14 09:29:10;;;;;;;13.70;6.25;;;;;;;25.56;46.67;98689.66;5116620;28;20065;-94
2022/09/14 09:31:42;;;;;;;14.60;5.70;;;;;;;25.68;46.62;98681.41;5117715;28;20058;-92
2022/09/14 09:34:10;;;;;;;12.70;4.82;;;;;;;25.31;46.21;98688.28;5114673;28;20063;-91
2022/09/14 09:36:41;;;;;;;8.35;4.70;;;;;;;25.17;45.93;98689.47;5115195;28;20040;-94
2022/09/14 09:39:07;;;;;;;15.65;5.43;;;;;;;24.64;48.32;98673.28;5119565;28;20120;-94
2022/09/14 09:41:43;;;;;;;13.23;6.10;;;;;;;24.54;48.14;98673.22;5117457;28;20040;-94
2022/09/14 09:44:10;;;;;;;10.73;5.18;;;;;;;24.84;47.56;98684.28;5120734;28;20043;-93
2022/09/14 09:46:44;;;;;;;9.85;5.10;;;;;;;24.97;48.20;98669.47;5118113;28;20134;-91
2022/09/14 09:49:17;;;;;;;10.98;4.95;;;;;;;25.07;48.09;98671.38;5117397;28;20055;-93
2022/09/14 09:51:43;;;;;;;14.00;5.00;;;;;;;25.07;47.39;98663.22;5117899;28;20028;-94
2022/09/14 09:54:22;;;;;;;10.73;5.60;;;;;;;25.23;46.67;98657.31;5119309;28;20069;-93
2022/09/14 09:56:52;;;;;;;12.38;5.75;;;;;;;25.54;48.42;98660.84;5119784;28;20928;-95
2022/09/14 09:59:26;;;;;;;11.90;5.10;;;;;;;25.78;46.51;98639.53;5118679;28;20059;-89
2022/09/14 10:01:55;;;;;;;11.05;4.75;;;;;;;26.31;45.54;98653.81;5117537;28;20065;-89
2022/09/14 10:04:23;;;;;;;9.82;4.57;;;;;;;26.52;44.55;98653.63;5118664;28;20046;-92
2022/09/14 10:06:53;;;;;;;10.02;4.90;;;;;;;26.64;43.85;98661.53;5117821;28;20078;-91
2022/09/14 10:09:22;;;;;;;9.68;4.80;;;;;;;26.78;42.60;98662.06;5116171;28;20039;-90
2022/09/14 10:11:56;;;;;;;11.15;4.30;;;;;;;26.50;42.19;98667.44;5119071;28;20485;-91
2022/09/14 10:14:27;;;;;;;8.20;3.72;;;;;;;26.80;41.25;98665.53;5117526;28;20035;-93
2022/09/14 10:17:04;;;;;;;8.95;4.00;;;;;;;26.73;40.08;98653.47;5114802;28;20429;-92
2022/09/14 10:19:31;;;;;;;6.90;3.38;;;;;;;26.92;40.38;98668.97;5117303;28;20054;-91
2022/09/14 10:22:03;;;;;;;10.75;4.47;;;;;;;27.21;39.80;98668.84;5117246;28;20047;-91
2022/09/14 10:24:32;;;;;;;10.40;3.80;;;;;;;27.28;40.17;98674.59;5117335;28;20043;-92
2022/09/14 10:26:57;;;;;;;;;;;;;;;26.98;39.17;98673.81;5115038;28;20032;-91
2022/09/14 10:29:33;;;;;;;10.93;3.60;;;;;;;27.14;41.22;98674.03;5117218;28;20055;-91
2022/09/14 10:32:06;;;;;;;7.55;4.05;;;;;;;27.23;41.02;98678.63;5116864;28;20058;-90
2022/09/14 10:34:32;;;;;;;8.40;3.35;;;;;;;26.86;40.03;98681.31;5117362;28;20050;-91
2022/09/14 10:37:11;;;;;;;8.52;3.65;;;;;;;26.92;39.91;98680.72;5116837;28;20053;-90
2022/09/14 10:39:43;;;;;;;11.55;3.75;;;;;;;26.88;39.81;98675.72;5117364;28;20042;-92
2022/09/14 10:42:16;;;;;;;7.70;3.50;;;;;;;26.81;39.60;98689.09;5117237;28;20520;-93
2022/09/14 10:44:57;;;;;;;8.60;3.72;;;;;;;26.81;40.16;98683.63;5115960;28;20085;-91
2022/09/14 10:47:59;;;;;;;9.50;3.97;;;;;;;27.18;41.14;98700.03;5116319;28;20169;-91
2022/09/14 10:50:33;;;;;;;7.97;3.47;;;;;;;27.19;38.59;98681.78;5069747;28;20045;-91
2022/09/14 10:53:13;;;;;;;7.30;3.47;;;;;;;27.37;39.18;98690.06;5076158;28;20135;-91
2022/09/14 10:55:48;;;;;;;7.30;3.80;;;;;;;26.93;38.66;98682.44;5074325;28;20040;-92
2022/09/14 10:58:30;;;;;;;9.98;3.95;;;;;;;26.88;39.72;98678.44;5073476;28;20045;-91
2022/09/14 11:01:08;;;;;;;10.07;3.58;;;;;;;26.76;40.29;98681.34;5076101;28;20120;-90
2022/09/14 11:03:52;;;;;;;;;;;;;;;26.92;39.82;98697.09;5071561;28;20059;-91
2022/09/14 11:06:33;;;;;;;7.65;3.33;;;;;;;26.94;40.03;98700.53;5071974;28;19926;-90
2022/09/14 11:09:02;;;;;;;6.55;2.83;;;;;;;27.03;38.08;98682.41;5073407;28;20135;-91
2022/09/14 11:11:43;;;;;;;6.18;2.85;;;;;;;27.24;38.67;98687.72;5074187;28;20080;-92
2022/09/14 11:14:26;;;;;;;4.50;2.60;;;;;;;27.35;37.63;98689.38;5073916;28;20064;-93
2022/09/14 11:17:19;;;;;;;5.75;2.65;;;;;;;27.34;39.09;98680.31;5075144;28;20051;-91
2022/09/14 11:19:57;;;;;;;8.07;2.95;;;;;;;27.49;39.11;98677.94;5073580;28;20048;-91
2022/09/14 11:22:33;;;;;;;6.80;2.90;;;;;;;27.40;39.98;98690.63;5072225;28;20071;-93
2022/09/14 11:25:04;;;;;;;7.18;3.15;;;;;;;27.57;40.88;98679.94;5078038;28;20521;-91
2022/09/14 11:27:38;;;;;;;10.88;3.33;;;;;;;27.40;41.14;98689.78;5114394;28;20043;-90
2022/09/14 11:30:10;;;;;;;6.15;2.80;;;;;;;26.99;43.22;98681.00;5117446;28;20051;-92
2022/09/14 11:32:41;;;;;;;8.15;3.20;;;;;;;27.01;44.10;98679.81;5116010;28;20019;-91
2022/09/14 11:35:17;;;;;;;8.85;3.08;;;;;;;26.91;46.12;98678.13;5116508;28;20043;-92
2022/09/14 11:37:47;;;;;;;7.15;3.20;;;;;;;26.91;46.66;98686.31;5114534;28;20092;-91